createdAt,value
2023-03-29T00:05:02.094Z,6.40
2023-03-29T00:19:47.744Z,5.50
2023-03-29T00:22:15.962Z,6.60
2023-03-29T00:40:12.072Z,6.60
2023-03-29T00:47:46.679Z,6.60
2023-03-29T00:50:29.486Z,5.60
2023-03-29T00:53:19.650Z,6.70
2023-03-29T00:55:53.999Z,6.70
2023-03-29T00:58:31.829Z,6.70
2023-03-29T01:01:08.789Z,5.60
2023-03-29T01:03:46.613Z,6.90
2023-03-29T01:06:17.162Z,6.80
2023-03-29T01:08:57.525Z,8.00
2023-03-29T01:11:42.047Z,7.80
2023-03-29T01:14:18.848Z,5.90
2023-03-29T01:19:18.275Z,6.90
2023-03-29T01:21:51.579Z,6.90
2023-03-29T01:24:33.536Z,7.00
2023-03-29T01:27:23.467Z,7.00
2023-03-29T01:30:01.055Z,7.00
2023-03-29T01:32:35.385Z,8.20
2023-03-29T01:37:38.480Z,7.20
2023-03-29T01:42:56.562Z,6.90
2023-03-29T01:46:04.147Z,7.20
2023-03-29T01:48:37.205Z,7.90
2023-03-29T01:51:14.213Z,7.20
2023-03-29T01:53:57.737Z,7.20
2023-03-29T01:56:28.604Z,7.00
2023-03-29T01:59:02.069Z,7.10
2023-03-29T02:01:34.411Z,7.20
2023-03-29T02:04:04.532Z,7.20
2023-03-29T02:13:57.217Z,7.30
2023-03-29T02:18:53.131Z,7.10
2023-03-29T02:21:48.335Z,7.60
2023-03-29T02:24:18.271Z,7.30
2023-03-29T02:32:11.615Z,7.30
2023-03-29T02:34:49.267Z,7.30
2023-03-29T02:37:19.048Z,7.30
2023-03-29T02:39:49.765Z,7.30
2023-03-29T02:42:20.574Z,7.10
2023-03-29T02:44:52.243Z,7.40
2023-03-29T02:47:28.920Z,7.30
2023-03-29T02:52:33.586Z,7.40
2023-03-29T02:55:03.133Z,8.20
2023-03-29T03:00:01.057Z,7.30
2023-03-29T03:12:19.590Z,8.20
2023-03-29T03:35:06.004Z,7.50
2023-03-29T04:03:17.982Z,8.70
2023-03-29T04:05:46.758Z,7.50
2023-03-29T04:11:10.561Z,6.10
2023-03-29T05:02:44.125Z,8.80
2023-03-29T05:05:13.379Z,6.30
2023-03-29T05:20:11.613Z,7.70
2023-03-29T05:30:11.653Z,8.50
2023-03-29T05:45:50.116Z,6.90
2023-03-29T05:50:49.067Z,8.40
2023-03-29T05:53:17.910Z,7.80
2023-03-29T05:58:14.531Z,7.90
2023-03-29T06:00:43.793Z,7.90
2023-03-29T06:06:02.607Z,6.90
2023-03-29T06:08:31.119Z,8.00
2023-03-29T06:14:07.611Z,7.00
2023-03-29T06:42:21.788Z,8.60
2023-03-29T06:45:07.746Z,7.40
2023-03-29T06:55:11.759Z,9.10
2023-03-29T06:57:40.132Z,9.10
2023-03-29T07:00:19.022Z,10.50
2023-03-29T07:05:51.921Z,9.40
2023-03-29T07:16:13.845Z,8.40
2023-03-29T07:29:39.835Z,11.00
2023-03-29T07:32:07.232Z,8.30
2023-03-29T07:37:34.387Z,9.70
2023-03-29T07:45:11.352Z,12.50
2023-03-29T07:47:54.261Z,10.30
2023-03-29T08:06:06.855Z,9.30
2023-03-29T08:11:09.808Z,11.30
2023-03-29T08:16:21.728Z,9.90
2023-03-29T08:23:54.482Z,12.20
2023-03-29T08:33:56.389Z,9.80
2023-03-29T08:45:05.682Z,11.40
2023-03-29T08:47:47.901Z,12.30
2023-03-29T08:52:57.606Z,11.70
2023-03-29T08:55:48.745Z,10.30
2023-03-29T09:01:11.662Z,11.60
2023-03-29T09:04:22.798Z,11.50
2023-03-29T09:09:35.674Z,12.90
2023-03-29T09:12:54.604Z,11.90
2023-03-29T09:15:33.113Z,12.20
2023-03-29T09:19:06.332Z,12.00
2023-03-29T09:22:11.015Z,11.70
2023-03-29T09:24:48.469Z,12.10
2023-03-29T09:27:28.029Z,12.30
2023-03-29T09:30:29.520Z,13.00
2023-03-29T09:33:17.263Z,12.50
2023-03-29T09:36:16.364Z,13.10
2023-03-29T09:38:49.039Z,11.10
2023-03-29T09:41:41.618Z,11.60
2023-03-29T09:44:30.151Z,11.60
2023-03-29T09:47:10.243Z,12.30
2023-03-29T09:49:43.717Z,12.40
2023-03-29T09:52:14.253Z,11.40
2023-03-29T09:57:38.668Z,10.90
2023-03-29T10:00:07.139Z,13.00
2023-03-29T10:02:41.180Z,12.60
2023-03-29T10:05:16.223Z,13.20
2023-03-29T10:07:52.325Z,13.00
2023-03-29T10:10:39.703Z,13.00
2023-03-29T10:13:12.400Z,13.10
2023-03-29T10:18:11.295Z,14.40
2023-03-29T10:20:40.632Z,13.20
2023-03-29T10:23:09.250Z,12.00
2023-03-29T10:25:42.854Z,14.40
2023-03-29T10:28:18.550Z,12.20
2023-03-29T10:30:52.392Z,13.10
2023-03-29T10:33:24.046Z,13.10
2023-03-29T10:35:51.599Z,13.20
2023-03-29T10:38:20.942Z,14.00
2023-03-29T10:40:53.112Z,13.40
2023-03-29T10:43:20.138Z,14.40
2023-03-29T10:45:52.757Z,13.10
2023-03-29T10:48:25.525Z,12.80
2023-03-29T10:50:53.241Z,14.40
2023-03-29T10:53:27.254Z,12.90
2023-03-29T10:56:19.126Z,13.20
2023-03-29T10:59:17.082Z,11.80
2023-03-29T11:04:24.468Z,12.70
2023-03-29T11:12:17.802Z,12.80
2023-03-29T11:15:03.588Z,12.80
2023-03-29T11:17:40.063Z,14.10
2023-03-29T11:20:31.096Z,12.80
2023-03-29T11:23:31.915Z,13.80
2023-03-29T11:26:22.685Z,12.80
2023-03-29T11:29:16.152Z,12.50
2023-03-29T11:32:14.015Z,14.10
2023-03-29T11:35:02.274Z,13.90
2023-03-29T11:37:42.963Z,13.20
2023-03-29T11:40:31.978Z,13.30
2023-03-29T11:43:02.766Z,13.40
2023-03-29T11:45:35.673Z,13.30
2023-03-29T11:48:07.648Z,13.70
2023-03-29T11:50:58.772Z,15.00
2023-03-29T11:53:32.269Z,13.60
2023-03-29T11:56:11.257Z,13.60
2023-03-29T11:58:42.472Z,13.50
2023-03-29T12:01:34.425Z,13.30
2023-03-29T12:04:07.996Z,13.30
2023-03-29T12:06:57.883Z,12.00
2023-03-29T12:10:04.092Z,14.40
2023-03-29T12:12:58.310Z,13.50
2023-03-29T12:15:28.907Z,13.20
2023-03-29T12:18:17.556Z,13.20
2023-03-29T12:20:49.673Z,13.10
2023-03-29T12:25:57.413Z,13.10
2023-03-29T12:28:51.688Z,13.00
2023-03-29T12:31:27.430Z,12.90
2023-03-29T12:34:25.487Z,11.90
2023-03-29T12:37:14.682Z,12.90
2023-03-29T12:40:21.459Z,12.10
2023-03-29T12:43:09.883Z,12.40
2023-03-29T12:46:08.196Z,13.20
2023-03-29T12:48:38.938Z,13.10
2023-03-29T12:51:12.815Z,11.90
2023-03-29T12:53:50.565Z,13.50
2023-03-29T12:56:20.873Z,13.20
2023-03-29T12:58:59.655Z,13.40
2023-03-29T13:01:32.043Z,13.40
2023-03-29T13:04:01.784Z,13.40
2023-03-29T13:06:48.434Z,13.30
2023-03-29T13:09:46.630Z,13.60
2023-03-29T13:12:27.085Z,13.50
2023-03-29T13:15:06.218Z,13.60
2023-03-29T13:18:12.284Z,13.80
2023-03-29T13:20:58.227Z,12.60
2023-03-29T13:26:11.442Z,13.90
2023-03-29T13:28:59.052Z,14.60
2023-03-29T13:31:45.638Z,13.90
2023-03-29T13:34:31.267Z,14.70
2023-03-29T13:36:58.072Z,13.90
2023-03-29T13:39:29.203Z,16.00
2023-03-29T13:42:16.555Z,16.10
2023-03-29T13:44:46.058Z,14.70
2023-03-29T13:47:16.450Z,14.90
2023-03-29T13:49:48.616Z,14.90
2023-03-29T13:52:35.179Z,13.70
2023-03-29T13:55:17.750Z,15.20
2023-03-29T13:58:10.307Z,15.30
2023-03-29T14:00:47.151Z,15.60
2023-03-29T14:03:17.471Z,16.70
2023-03-29T14:05:58.890Z,15.40
2023-03-29T14:08:30.387Z,16.10
2023-03-29T14:11:02.290Z,16.00
2023-03-29T14:13:29.941Z,16.20
2023-03-29T14:16:04.436Z,16.20
2023-03-29T14:18:37.994Z,16.30
2023-03-29T14:23:36.496Z,16.80
2023-03-29T14:26:08.463Z,17.90
2023-03-29T14:28:35.696Z,17.20
2023-03-29T14:31:02.557Z,15.90
2023-03-29T14:33:34.526Z,17.30
2023-03-29T14:36:04.167Z,17.40
2023-03-29T14:38:32.277Z,17.40
2023-03-29T14:41:00.852Z,17.80
2023-03-29T14:43:31.305Z,17.90
2023-03-29T14:46:01.471Z,16.40
2023-03-29T14:48:28.996Z,16.50
2023-03-29T14:53:24.242Z,19.20
2023-03-29T14:55:55.709Z,17.80
2023-03-29T14:58:32.823Z,17.60
2023-03-29T15:01:07.943Z,17.40
2023-03-29T15:03:49.741Z,17.30
2023-03-29T15:08:54.399Z,17.20
2023-03-29T15:11:30.834Z,17.10
2023-03-29T15:14:13.932Z,18.40
2023-03-29T15:16:43.883Z,17.10
2023-03-29T15:19:20.770Z,17.70
2023-03-29T15:21:50.197Z,16.60
2023-03-29T15:24:31.374Z,16.80
2023-03-29T15:27:01.365Z,16.70
2023-03-29T15:29:36.266Z,16.70
2023-03-29T15:34:32.667Z,17.20
2023-03-29T15:37:01.126Z,17.10
2023-03-29T15:39:29.372Z,16.20
2023-03-29T15:41:57.634Z,17.40
2023-03-29T15:44:29.811Z,16.10
2023-03-29T15:46:57.769Z,16.90
2023-03-29T15:51:57.088Z,15.90
2023-03-29T15:54:24.882Z,15.90
2023-03-29T15:57:00.062Z,15.80
2023-03-29T16:01:55.249Z,15.50
2023-03-29T16:04:22.861Z,15.80
2023-03-29T16:06:52.900Z,14.50
2023-03-29T16:09:21.411Z,15.70
2023-03-29T16:11:49.570Z,15.60
2023-03-29T16:14:27.300Z,15.70
2023-03-29T16:17:01.278Z,16.60
2023-03-29T16:19:30.103Z,15.40
2023-03-29T16:21:57.752Z,15.40
2023-03-29T16:24:31.457Z,15.30
2023-03-29T16:26:59.300Z,15.40
2023-03-29T16:36:49.681Z,15.30
2023-03-29T16:41:46.871Z,16.20
2023-03-29T16:44:16.797Z,15.10
2023-03-29T16:49:18.282Z,15.80
2023-03-29T16:51:46.847Z,14.90
2023-03-29T16:54:15.110Z,15.00
2023-03-29T17:01:37.130Z,14.00
2023-03-29T17:04:04.835Z,15.00
2023-03-29T17:06:33.029Z,15.10
2023-03-29T17:09:00.616Z,13.90
2023-03-29T17:18:50.359Z,15.10
2023-03-29T17:21:17.596Z,14.40
2023-03-29T17:26:12.076Z,13.80
2023-03-29T17:31:07.798Z,14.80
2023-03-29T17:36:04.334Z,16.10
2023-03-29T17:38:33.990Z,17.60
2023-03-29T17:43:29.828Z,15.40
2023-03-29T17:48:24.754Z,15.60
2023-03-29T18:10:32.561Z,14.40
2023-03-29T18:15:27.378Z,13.10
2023-03-29T18:17:54.231Z,13.10
2023-03-29T18:20:21.130Z,12.80
2023-03-29T18:35:08.566Z,13.30
2023-03-29T18:40:06.788Z,15.10
2023-03-29T18:42:33.896Z,14.70
2023-03-29T18:45:00.854Z,13.50
2023-03-29T18:59:46.788Z,13.20
2023-03-29T19:02:14.110Z,13.70
2023-03-29T19:09:36.009Z,12.30
2023-03-29T19:12:03.774Z,13.50
2023-03-29T19:19:26.386Z,12.20
2023-03-29T19:53:55.610Z,13.40
2023-03-29T19:58:51.991Z,13.40
2023-03-29T20:01:22.549Z,14.50
2023-03-29T20:03:50.153Z,13.00
2023-03-29T20:06:18.291Z,13.40
2023-03-29T20:11:13.977Z,13.20
2023-03-29T20:13:45.309Z,13.30
2023-03-29T20:16:16.038Z,13.30
2023-03-29T20:18:46.955Z,13.40
2023-03-29T20:21:16.713Z,13.30
2023-03-29T20:31:10.668Z,13.30
2023-03-29T20:33:38.015Z,14.00
2023-03-29T20:36:06.514Z,13.30
2023-03-29T21:00:58.776Z,14.50
2023-03-29T21:05:58.381Z,13.20
2023-03-29T21:10:56.286Z,11.80
2023-03-29T21:15:51.200Z,11.90
2023-03-29T21:23:13.376Z,13.10
2023-03-29T21:25:40.207Z,12.00
2023-03-29T21:33:01.753Z,12.40
2023-03-29T21:45:18.584Z,11.90
2023-03-29T21:52:40.467Z,14.10
2023-03-29T21:55:07.983Z,11.70
2023-03-29T21:57:34.926Z,12.10
2023-03-29T22:04:59.356Z,11.90
2023-03-29T22:14:49.516Z,12.40
2023-03-29T22:17:16.344Z,13.30
2023-03-29T22:29:36.275Z,12.20
2023-03-29T22:36:58.174Z,13.80
2023-03-29T23:03:58.230Z,12.50
2023-03-29T23:06:25.401Z,14.20
2023-03-29T23:11:19.587Z,14.00
2023-03-29T23:16:16.363Z,13.10
2023-03-29T23:23:38.333Z,12.90
2023-03-29T23:26:06.212Z,13.30
2023-03-29T23:28:34.693Z,14.60
2023-03-29T23:31:06.219Z,13.40
2023-03-29T23:33:35.779Z,13.40
2023-03-29T23:36:05.733Z,13.30
2023-03-29T23:38:34.208Z,13.40
2023-03-29T23:41:03.646Z,13.50
2023-03-29T23:43:37.280Z,13.30
2023-03-29T23:46:06.969Z,14.70
2023-03-29T23:48:34.653Z,13.40
2023-03-29T23:51:03.020Z,13.50
2023-03-29T23:56:03.455Z,13.50
2023-03-29T23:58:33.220Z,13.40
